createdAt,value
2022-09-03T00:05:05.196Z,99.90
2022-09-03T00:10:16.312Z,99.90
2022-09-03T00:15:20.768Z,99.90
2022-09-03T00:20:28.627Z,99.00
2022-09-03T00:25:44.002Z,99.90
2022-09-03T00:30:47.510Z,99.90
2022-09-03T00:36:12.403Z,99.90
2022-09-03T00:41:23.065Z,99.90
2022-09-03T00:46:36.181Z,99.90
2022-09-03T00:51:38.041Z,99.90
2022-09-03T00:56:48.792Z,99.90
2022-09-03T01:02:33.997Z,99.90
2022-09-03T01:07:46.189Z,99.90
2022-09-03T01:13:00.473Z,99.90
2022-09-03T01:18:11.322Z,99.90
2022-09-03T01:23:35.868Z,99.90
2022-09-03T01:28:48.910Z,99.90
2022-09-03T01:33:58.814Z,99.90
2022-09-03T01:39:03.919Z,99.90
2022-09-03T01:44:09.807Z,99.90
2022-09-03T01:49:22.636Z,99.90
2022-09-03T01:54:27.421Z,99.90
2022-09-03T01:59:33.481Z,99.90
2022-09-03T02:04:35.713Z,99.90
2022-09-03T02:09:37.532Z,99.90
2022-09-03T02:14:39.380Z,99.90
2022-09-03T02:19:41.564Z,99.90
2022-09-03T02:24:44.030Z,99.90
2022-09-03T02:29:45.900Z,99.90
2022-09-03T02:34:47.813Z,99.90
2022-09-03T02:39:51.461Z,99.90
2022-09-03T02:44:57.644Z,99.90
2022-09-03T02:49:59.476Z,99.90
2022-09-03T02:55:01.295Z,99.90
2022-09-03T03:00:04.149Z,99.90
2022-09-03T03:05:08.476Z,99.90
2022-09-03T03:10:10.652Z,99.90
2022-09-03T03:15:12.520Z,99.90
2022-09-03T03:20:14.717Z,99.90
2022-09-03T03:25:16.685Z,99.90
2022-09-03T03:30:20.949Z,99.90
2022-09-03T03:35:23.194Z,99.90
2022-09-03T03:40:25.400Z,99.90
2022-09-03T03:45:27.280Z,99.90
2022-09-03T03:50:29.188Z,99.90
2022-09-03T03:55:35.071Z,99.90
2022-09-03T04:00:37.766Z,99.90
2022-09-03T04:05:46.178Z,99.90
2022-09-03T04:10:50.620Z,99.90
2022-09-03T04:15:53.172Z,99.90
2022-09-03T04:21:04.290Z,99.90
2022-09-03T04:26:06.926Z,99.90
2022-09-03T04:31:11.252Z,99.90
2022-09-03T04:36:14.446Z,99.90
2022-09-03T04:41:18.680Z,99.90
2022-09-03T04:46:22.208Z,99.90
2022-09-03T04:51:27.254Z,99.90
2022-09-03T04:56:31.608Z,99.90
2022-09-03T05:01:35.025Z,99.90
2022-09-03T05:06:37.439Z,99.90
2022-09-03T05:11:39.259Z,99.90
2022-09-03T05:16:41.199Z,99.90
2022-09-03T05:21:43.229Z,99.90
2022-09-03T05:26:45.173Z,99.90
2022-09-03T05:31:47.092Z,99.90
2022-09-03T05:36:49.877Z,99.90
2022-09-03T05:41:52.340Z,99.90
2022-09-03T05:46:54.182Z,99.90
2022-09-03T05:51:55.978Z,99.90
2022-09-03T05:56:57.861Z,99.90
2022-09-03T06:02:00.514Z,99.90
2022-09-03T06:07:02.557Z,98.90
2022-09-03T06:12:04.848Z,95.90
2022-09-03T06:17:06.749Z,95.00
2022-09-03T06:22:08.753Z,94.30
2022-09-03T06:27:10.618Z,93.30
2022-09-03T06:32:13.485Z,92.10
2022-09-03T06:37:15.344Z,91.50
2022-09-03T06:42:17.887Z,91.20
2022-09-03T06:47:19.689Z,90.50
2022-09-03T06:52:22.302Z,90.00
2022-09-03T06:57:24.115Z,86.20
2022-09-03T07:02:26.064Z,86.40
2022-09-03T07:07:27.889Z,86.20
2022-09-03T07:12:29.894Z,82.80
2022-09-03T07:17:31.791Z,82.50
2022-09-03T07:22:33.600Z,78.30
2022-09-03T07:27:35.593Z,76.90
2022-09-03T07:32:40.941Z,76.30
2022-09-03T07:37:43.327Z,76.30
2022-09-03T07:42:45.143Z,77.00
2022-09-03T07:47:49.542Z,76.50
2022-09-03T07:52:57.293Z,76.40
2022-09-03T07:57:59.521Z,76.10
2022-09-03T08:03:06.154Z,73.80
2022-09-03T08:08:08.251Z,74.50
2022-09-03T08:13:11.022Z,74.60
2022-09-03T08:18:13.263Z,72.90
2022-09-03T08:23:16.319Z,72.80
2022-09-03T08:28:18.409Z,74.30
2022-09-03T08:33:37.267Z,72.10
2022-09-03T08:38:42.486Z,68.60
2022-09-03T08:44:17.712Z,69.00
2022-09-03T08:49:24.909Z,69.70
2022-09-03T08:54:31.016Z,68.00
2022-09-03T08:59:33.406Z,68.70
2022-09-03T09:04:45.580Z,67.00
2022-09-03T09:09:54.457Z,67.30
2022-09-03T09:15:33.962Z,66.00
2022-09-03T09:20:55.066Z,64.60
2022-09-03T09:25:59.612Z,66.40
2022-09-03T09:31:04.588Z,64.70
2022-09-03T09:36:11.518Z,64.00
2022-09-03T09:41:23.350Z,65.40
2022-09-03T09:46:36.961Z,64.20
2022-09-03T09:51:39.322Z,63.10
2022-09-03T09:56:45.481Z,62.80
2022-09-03T10:01:47.431Z,65.10
2022-09-03T10:07:01.883Z,63.00
2022-09-03T10:12:44.392Z,62.10
2022-09-03T10:18:29.063Z,63.60
2022-09-03T10:23:40.240Z,62.70
2022-09-03T10:28:43.364Z,62.30
2022-09-03T10:33:57.841Z,63.70
2022-09-03T11:00:54.242Z,59.40
2022-09-03T11:06:05.119Z,59.70
2022-09-03T11:11:26.612Z,58.60
2022-09-03T11:16:32.345Z,60.70
2022-09-03T11:21:41.834Z,59.20
2022-09-03T11:27:01.781Z,58.20
2022-09-03T11:32:15.898Z,59.20
2022-09-03T11:37:22.316Z,57.30
2022-09-03T11:42:27.679Z,57.40
2022-09-03T11:47:56.331Z,58.00
2022-09-03T11:53:14.857Z,57.70
2022-09-03T11:58:34.825Z,58.60
2022-09-03T12:03:57.454Z,58.50
2022-09-03T12:09:21.544Z,57.80
2022-09-03T12:14:52.326Z,56.40
2022-09-03T12:19:56.008Z,56.30
2022-09-03T12:25:15.067Z,55.80
2022-09-03T12:30:18.509Z,57.00
2022-09-03T12:46:14.546Z,56.30
2022-09-03T12:56:42.524Z,57.50
2022-09-03T13:01:51.200Z,57.90
2022-09-03T13:07:45.665Z,57.70
2022-09-03T13:12:52.978Z,57.60
2022-09-03T13:18:08.690Z,57.20
2022-09-03T13:23:22.956Z,56.60
2022-09-03T13:28:40.114Z,56.90
2022-09-03T13:33:46.355Z,57.60
2022-09-03T13:38:58.997Z,56.30
2022-09-03T13:44:13.042Z,56.40
2022-09-03T13:49:36.253Z,56.00
2022-09-03T13:54:49.140Z,56.50
2022-09-03T14:00:09.483Z,57.30
2022-09-03T14:05:38.608Z,57.70
2022-09-03T14:11:18.036Z,58.30
2022-09-03T14:16:49.998Z,58.70
2022-09-03T14:22:01.105Z,58.80
2022-09-03T14:27:04.658Z,59.00
2022-09-03T14:32:12.482Z,59.40
2022-09-03T14:37:42.123Z,59.60
2022-09-03T14:43:06.544Z,58.30
2022-09-03T14:48:34.309Z,59.10
2022-09-03T14:53:42.014Z,57.60
2022-09-03T14:59:21.428Z,57.80
2022-09-03T15:04:47.865Z,58.00
2022-09-03T15:10:08.209Z,59.20
2022-09-03T15:15:21.869Z,58.10
2022-09-03T15:20:46.202Z,59.60
2022-09-03T15:26:12.713Z,61.20
2022-09-03T15:31:24.152Z,60.60
2022-09-03T15:36:28.125Z,60.10
2022-09-03T15:41:41.723Z,62.10
2022-09-03T15:46:57.325Z,60.90
2022-09-03T15:52:10.199Z,61.10
2022-09-03T15:57:24.131Z,62.00
2022-09-03T16:02:35.584Z,62.50
2022-09-03T16:07:37.387Z,62.40
2022-09-03T16:13:01.264Z,62.30
2022-09-03T16:18:27.778Z,63.10
2022-09-03T16:23:38.458Z,63.70
2022-09-03T16:28:53.586Z,64.20
2022-09-03T16:34:08.905Z,64.50
2022-09-03T16:39:23.325Z,65.60
2022-09-03T16:44:55.768Z,65.00
2022-09-03T16:50:08.669Z,66.00
2022-09-03T16:55:19.459Z,66.00
2022-09-03T17:00:23.316Z,66.50
2022-09-03T17:05:34.280Z,66.60
2022-09-03T17:10:43.288Z,67.90
2022-09-03T17:15:58.612Z,67.10
2022-09-03T17:21:32.604Z,67.90
2022-09-03T17:26:56.734Z,68.10
2022-09-03T17:32:37.277Z,68.20
2022-09-03T17:37:52.786Z,68.70
2022-09-03T17:43:06.630Z,71.10
2022-09-03T17:48:11.412Z,72.20
2022-09-03T17:53:24.761Z,74.90
2022-09-03T17:58:38.196Z,74.90
2022-09-03T18:03:55.477Z,76.80
2022-09-03T18:08:57.293Z,79.40
2022-09-03T18:14:18.025Z,78.40
2022-09-03T18:19:58.319Z,78.40
2022-09-03T18:25:18.821Z,78.90
2022-09-03T18:30:40.571Z,79.20
2022-09-03T18:36:05.044Z,78.80
2022-09-03T18:41:30.641Z,79.30
2022-09-03T18:53:41.385Z,79.10
2022-09-03T18:59:25.428Z,79.10
2022-09-03T19:05:23.072Z,79.90
2022-09-03T19:10:57.921Z,80.20
2022-09-03T19:16:24.654Z,80.40
2022-09-03T19:21:57.710Z,80.70
2022-09-03T19:33:22.953Z,81.80
2022-09-03T19:39:00.788Z,82.00
2022-09-03T19:44:59.825Z,82.70
2022-09-03T19:50:45.093Z,83.10
2022-09-03T19:56:19.568Z,84.60
2022-09-03T20:01:44.364Z,84.70
2022-09-03T20:07:05.199Z,85.40
2022-09-03T20:12:08.221Z,86.90
2022-09-03T20:17:40.434Z,87.30
2022-09-03T20:22:55.813Z,87.50
2022-09-03T20:28:22.154Z,87.80
2022-09-03T20:34:02.735Z,89.30
2022-09-03T20:39:41.035Z,90.20
2022-09-03T20:44:49.416Z,90.40
2022-09-03T20:50:10.117Z,90.30
2022-09-03T20:55:20.447Z,91.00
2022-09-03T21:00:23.232Z,91.00
2022-09-03T21:05:36.815Z,91.90
2022-09-03T21:10:58.732Z,92.50
2022-09-03T21:16:11.677Z,92.40
2022-09-03T21:21:22.926Z,92.50
2022-09-03T21:26:28.148Z,92.90
2022-09-03T21:32:08.443Z,94.50
2022-09-03T21:37:13.763Z,94.50
2022-09-03T21:42:17.075Z,95.20
2022-09-03T21:47:21.404Z,96.00
2022-09-03T21:52:39.975Z,95.80
2022-09-03T21:57:57.301Z,95.00
2022-09-03T22:03:00.388Z,94.90
2022-09-03T22:08:07.774Z,93.70
2022-09-03T22:13:15.534Z,96.40
2022-09-03T22:18:31.761Z,96.10
2022-09-03T22:24:19.022Z,96.60
2022-09-03T22:29:25.353Z,97.10
2022-09-03T22:34:48.374Z,97.90
2022-09-03T22:39:50.382Z,99.90
2022-09-03T22:45:34.618Z,99.90
2022-09-03T22:50:55.902Z,99.90
2022-09-03T22:56:09.727Z,99.90
2022-09-03T23:01:18.594Z,99.90
2022-09-03T23:06:38.488Z,99.90
2022-09-03T23:11:44.578Z,99.90
2022-09-03T23:16:57.463Z,99.90
2022-09-03T23:22:03.966Z,99.90
2022-09-03T23:27:08.766Z,99.90
2022-09-03T23:32:10.729Z,99.90
2022-09-03T23:37:35.294Z,99.90
2022-09-03T23:42:43.022Z,99.90
2022-09-03T23:47:56.796Z,99.90
2022-09-03T23:53:23.102Z,99.90
2022-09-03T23:58:46.423Z,99.90
